Arad Siria

LRCB · Arad, 罗马尼亚

使用的METAR站距离机场28 km。
罗盘
风向 的 风向 的 风向 到 风向 320° Arad Siria 18/36
风: 5 kt, 2 beaufort

3 kt

4 kt
改变
0 ft 1.000 2.000 3.000 4.000 5.000
未检测到零云
METAR LRAR 180530Z AUTO 32005KT 290V360 9999 NCD 24/20 Q1018 RERA

METAR Arad Siria - LRCB

Arad Siria是,罗马尼亚中的小机场。 该机场位于纬度46,27001和经度21,60562。 该机场有一条跑道: 18/36. 本场的ICAO机场代码为LRCB。 机场在Bucuresti FIR中。

该航空气象观测是针对Arad International Airport在2024年7月18日 08:30, 当地时间进行的。

机场观察

风向为320°,速度为5 kt。 风向在290°和360°之间变化。

可见度为10 km 或者更多。

有未检测到零云。 没有观察到天花板。

温度和风寒是24 °C。 露点为20 °C,相对湿度为78%。 海平面上的气压为1018 hPa (QNH)。 最近是雨。

白天

今天,太阳从06:00升起,在21:19降落。 这适用于Arad Siria,世界夏令时可能有所不同。 当地时间与世界标准时间之间的时差为+3 小时。 夏令时目前正在进行中。

公司介绍

我们没有关于这个机场的公司信息。

体会

到Vliegles.nl去找飞行课程,跳伞和其他飞行体验。 浏览页面,了解Arad Siria附近所有可用的活动。 你也可以使用搜索功能来寻找你所在地附近的特定飞行课程、跳伞或其他飞行体验。

跑道

Id 标题 侧风 逆风 侧风 %
18/36 188°-008° 4 kt 3 kt 74 %

逆风成分最大的方向会被突出显示,并用于横风计算。 这并不一定意味着这个方向在使用。

乌云

- NCD 未检测到零云

温度 & 天气

最近的
温度 24 °C
露点 20 °C
相对湿度 78%
Kp-index 0 (0-9)

白天

日出
06:01
中午
13:41
日落
21:20 (12:45)

小工具

你想在你的网站上有一个关于Arad Siria的当前航空天气(METAR)的小部件吗?

显示HTML代码
报告变更